createdAt,value
2023-02-14T00:00:02.208Z,9.37
2023-02-14T00:02:30.099Z,9.41
2023-02-14T00:04:57.736Z,9.38
2023-02-14T00:07:25.345Z,9.40
2023-02-14T00:09:52.942Z,9.42
2023-02-14T00:12:20.856Z,9.37
2023-02-14T00:15:08.446Z,9.34
2023-02-14T00:17:36.508Z,9.27
2023-02-14T00:20:05.021Z,9.32
2023-02-14T00:22:32.668Z,9.30
2023-02-14T00:25:00.466Z,9.36
2023-02-14T00:27:28.059Z,9.29
2023-02-14T00:30:03.084Z,9.28
2023-02-14T00:32:30.737Z,9.28
2023-02-14T00:34:58.370Z,9.23
2023-02-14T00:37:26.017Z,9.32
2023-02-14T00:39:53.745Z,9.30
2023-02-14T00:42:22.172Z,9.31
2023-02-14T01:15:10.048Z,9.07
2023-02-14T01:41:30.240Z,9.06
2023-02-14T01:44:00.510Z,9.07
2023-02-14T01:46:29.918Z,9.14
2023-02-14T01:49:01.172Z,9.14
2023-02-14T01:51:29.624Z,9.11
2023-02-14T01:53:58.026Z,9.12
2023-02-14T01:56:31.442Z,9.17
2023-02-14T01:59:01.463Z,9.12
2023-02-14T02:01:30.137Z,9.12
2023-02-14T02:04:01.164Z,9.10
2023-02-14T02:06:31.607Z,9.12
2023-02-14T02:09:06.344Z,9.08
2023-02-14T02:11:35.440Z,9.07
2023-02-14T02:14:03.372Z,9.10
2023-02-14T02:16:47.193Z,9.10
2023-02-14T02:19:52.464Z,9.04
2023-02-14T02:31:39.327Z,9.08
2023-02-14T02:34:43.222Z,9.09
2023-02-14T02:37:24.708Z,9.01
2023-02-14T02:40:06.957Z,8.96
2023-02-14T03:03:23.420Z,8.95
2023-02-14T03:05:51.235Z,8.96
2023-02-14T03:08:18.949Z,8.92
2023-02-14T03:10:46.675Z,8.95
2023-02-14T03:13:31.979Z,8.98
2023-02-14T03:16:52.365Z,8.96
2023-02-14T03:39:13.973Z,8.88
2023-02-14T03:41:45.367Z,8.87
2023-02-14T03:44:15.055Z,8.91
2023-02-14T03:46:46.963Z,8.82
2023-02-14T03:49:19.292Z,8.87
2023-02-14T03:51:49.800Z,8.88
2023-02-14T03:54:19.841Z,8.88
2023-02-14T03:56:49.814Z,8.85
2023-02-14T03:59:19.749Z,8.82
2023-02-14T04:01:50.567Z,8.83
2023-02-14T04:04:21.577Z,8.80
2023-02-14T04:06:49.748Z,8.75
2023-02-14T04:09:18.784Z,8.78
2023-02-14T04:11:46.469Z,8.85
2023-02-14T04:14:14.229Z,8.84
2023-02-14T04:16:55.652Z,8.84
2023-02-14T04:19:25.932Z,8.75
2023-02-14T04:21:54.113Z,8.88
2023-02-14T04:24:23.107Z,8.78
2023-02-14T04:27:09.839Z,8.80
2023-02-14T04:29:38.788Z,8.80
2023-02-14T04:32:08.356Z,8.80
2023-02-14T04:34:36.217Z,8.81
2023-02-14T04:37:03.759Z,8.77
2023-02-14T04:39:33.059Z,8.82
2023-02-14T04:42:00.582Z,8.80
2023-02-14T04:44:28.340Z,8.78
2023-02-14T04:46:56.222Z,8.76
2023-02-14T04:49:23.962Z,8.79
2023-02-14T04:54:36.877Z,8.73
2023-02-14T04:57:04.529Z,8.81
2023-02-14T04:59:32.380Z,8.74
2023-02-14T05:02:00.242Z,8.80
2023-02-14T05:04:31.786Z,8.82
2023-02-14T05:06:59.617Z,8.78
2023-02-14T05:09:27.335Z,8.85
2023-02-14T05:11:56.387Z,8.83
2023-02-14T05:14:24.189Z,8.80
2023-02-14T05:16:51.945Z,8.69
2023-02-14T05:19:19.560Z,8.65
2023-02-14T05:21:47.375Z,8.75
2023-02-14T05:24:14.939Z,8.68
2023-02-14T05:26:42.500Z,8.78
2023-02-14T05:29:11.454Z,8.77
2023-02-14T05:31:39.267Z,8.76
2023-02-14T05:34:07.067Z,8.80
2023-02-14T05:36:34.688Z,8.72
2023-02-14T05:39:03.589Z,8.75
2023-02-14T05:41:31.225Z,8.81
2023-02-14T05:43:58.837Z,8.77
2023-02-14T05:46:27.824Z,8.77
2023-02-14T05:48:55.445Z,8.80
2023-02-14T05:51:22.964Z,8.72
2023-02-14T05:53:50.611Z,8.72
2023-02-14T05:56:18.268Z,8.77
2023-02-14T05:58:45.818Z,8.74
2023-02-14T06:01:13.396Z,8.68
2023-02-14T06:03:42.283Z,8.72
2023-02-14T06:06:16.011Z,8.61
2023-02-14T06:08:44.029Z,8.64
2023-02-14T06:11:11.523Z,8.67
2023-02-14T06:13:43.020Z,8.67
2023-02-14T06:16:15.783Z,8.72
2023-02-14T06:18:48.021Z,8.67
2023-02-14T06:23:54.833Z,8.67
2023-02-14T06:26:36.572Z,8.64
2023-02-14T06:34:57.627Z,8.60
2023-02-14T06:43:29.361Z,8.50
2023-02-14T06:46:00.464Z,8.48
2023-02-14T06:48:31.274Z,8.47
2023-02-14T06:51:03.523Z,8.52
2023-02-14T06:53:34.119Z,8.47
2023-02-14T06:56:01.946Z,8.51
2023-02-14T06:58:34.853Z,8.48
2023-02-14T07:01:07.120Z,8.50
2023-02-14T07:03:38.472Z,8.48
2023-02-14T07:06:09.762Z,8.50
2023-02-14T07:08:39.011Z,8.47
2023-02-14T07:11:08.307Z,8.50
2023-02-14T07:13:37.674Z,8.50
2023-02-14T07:16:07.450Z,8.47
2023-02-14T07:18:35.671Z,8.51
2023-02-14T07:21:03.982Z,8.50
2023-02-14T07:23:33.139Z,8.46
2023-02-14T07:26:01.043Z,8.48
2023-02-14T07:28:30.328Z,8.49
2023-02-14T07:31:00.789Z,8.48
2023-02-14T07:33:28.844Z,8.53
2023-02-14T07:35:56.390Z,8.46
2023-02-14T07:38:24.477Z,8.46
2023-02-14T07:40:55.576Z,8.49
2023-02-14T07:43:23.137Z,8.44
2023-02-14T07:45:50.719Z,8.45
2023-02-14T07:48:18.478Z,8.49
2023-02-14T07:50:46.003Z,8.45
2023-02-14T07:53:13.664Z,8.47
2023-02-14T07:55:42.413Z,8.40
2023-02-14T07:58:12.581Z,8.36
2023-02-14T08:00:43.310Z,8.43
2023-02-14T08:03:11.362Z,8.45
2023-02-14T08:05:39.117Z,8.40
2023-02-14T08:08:06.819Z,8.46
2023-02-14T08:10:34.551Z,8.51
2023-02-14T08:13:03.370Z,8.54
2023-02-14T08:15:52.606Z,8.68
2023-02-14T08:18:20.717Z,8.72
2023-02-14T08:20:49.886Z,8.79
2023-02-14T08:23:18.351Z,8.62
2023-02-14T08:25:46.181Z,8.62
2023-02-14T08:28:18.639Z,8.68
2023-02-14T08:30:48.457Z,8.78
2023-02-14T08:33:16.023Z,8.81
2023-02-14T08:35:43.596Z,8.82
2023-02-14T08:38:11.927Z,8.80
2023-02-14T08:40:39.614Z,8.85
2023-02-14T08:43:07.901Z,8.90
2023-02-14T08:45:35.525Z,9.00
2023-02-14T08:48:06.449Z,9.09
2023-02-14T08:50:34.546Z,9.11
2023-02-14T08:53:02.291Z,9.14
2023-02-14T08:55:29.875Z,9.11
2023-02-14T08:57:58.278Z,9.16
2023-02-14T09:00:26.165Z,9.12
2023-02-14T09:02:54.461Z,8.96
2023-02-14T09:05:24.938Z,9.14
2023-02-14T09:07:52.599Z,9.03
2023-02-14T09:10:20.254Z,9.14
2023-02-14T09:12:47.892Z,9.10
2023-02-14T09:15:15.496Z,9.19
2023-02-14T09:17:43.244Z,9.18
2023-02-14T09:20:12.554Z,9.23
2023-02-14T09:22:42.391Z,9.21
2023-02-14T09:25:10.477Z,9.25
2023-02-14T09:27:38.264Z,9.37
2023-02-14T09:30:06.918Z,9.34
2023-02-14T09:32:34.945Z,9.35
2023-02-14T09:35:05.373Z,9.46
2023-02-14T09:37:32.992Z,9.48
2023-02-14T09:40:02.556Z,9.45
2023-02-14T09:42:50.069Z,9.47
2023-02-14T09:45:20.504Z,9.46
2023-02-14T09:47:51.149Z,9.44
2023-02-14T09:50:24.161Z,9.50
2023-02-14T09:52:55.339Z,9.54
2023-02-14T09:55:24.567Z,9.59
2023-02-14T09:58:07.344Z,9.56
2023-02-14T10:00:39.448Z,9.62
2023-02-14T10:03:31.276Z,9.62
2023-02-14T10:06:03.131Z,9.58
2023-02-14T10:08:42.211Z,9.59
2023-02-14T10:11:13.147Z,9.61
2023-02-14T10:13:43.308Z,9.61
2023-02-14T10:16:16.389Z,9.67
2023-02-14T10:18:47.227Z,9.71
2023-02-14T10:21:23.247Z,9.74
2023-02-14T10:23:54.140Z,9.81
2023-02-14T10:26:29.331Z,9.90
2023-02-14T10:28:57.072Z,9.82
2023-02-14T10:31:26.392Z,9.83
2023-02-14T10:33:59.053Z,9.92
2023-02-14T10:36:42.799Z,9.83
2023-02-14T10:39:23.055Z,9.79
2023-02-14T10:41:54.411Z,9.99
2023-02-14T10:44:31.649Z,9.98
2023-02-14T10:47:03.912Z,10.14
2023-02-14T10:49:40.686Z,9.99
2023-02-14T10:52:18.657Z,10.11
2023-02-14T10:54:52.067Z,10.18
2023-02-14T10:57:25.247Z,10.17
2023-02-14T10:59:56.041Z,10.22
2023-02-14T11:02:25.629Z,10.26
2023-02-14T11:04:53.530Z,10.32
2023-02-14T11:07:22.935Z,10.17
2023-02-14T11:09:50.815Z,10.25
2023-02-14T11:12:39.219Z,10.21
2023-02-14T11:15:12.801Z,10.34
2023-02-14T11:17:40.344Z,10.33
2023-02-14T11:20:25.368Z,10.57
2023-02-14T11:22:53.420Z,10.41
2023-02-14T11:25:23.362Z,10.48
2023-02-14T11:27:57.299Z,10.48
2023-02-14T11:30:28.968Z,10.65
2023-02-14T11:32:57.000Z,10.78
2023-02-14T11:35:27.629Z,10.61
2023-02-14T11:37:56.918Z,10.78
2023-02-14T11:40:29.537Z,10.76
2023-02-14T11:43:13.324Z,10.82
2023-02-14T11:45:43.462Z,10.76
2023-02-14T11:48:22.325Z,10.73
2023-02-14T11:50:57.836Z,10.88
2023-02-14T11:53:27.667Z,10.86
2023-02-14T11:55:56.969Z,10.81
2023-02-14T11:58:38.543Z,10.95
2023-02-14T12:01:06.517Z,10.94
2023-02-14T12:03:39.726Z,10.95
2023-02-14T12:06:07.635Z,10.93
2023-02-14T12:08:38.914Z,10.93
2023-02-14T12:11:20.398Z,10.95
2023-02-14T12:13:55.269Z,10.97
2023-02-14T12:16:28.288Z,11.00
2023-02-14T12:18:58.555Z,11.04
2023-02-14T12:21:37.958Z,11.08
2023-02-14T12:24:14.794Z,11.06
2023-02-14T12:26:47.768Z,11.08
2023-02-14T12:29:22.155Z,11.10
2023-02-14T12:31:50.993Z,11.14
2023-02-14T12:34:19.956Z,11.12
2023-02-14T12:37:00.294Z,11.24
2023-02-14T12:39:36.538Z,11.17
2023-02-14T12:42:11.463Z,11.18
2023-02-14T12:44:48.330Z,11.31
2023-02-14T12:47:22.059Z,11.22
2023-02-14T12:50:08.268Z,11.20
2023-02-14T12:52:48.859Z,11.30
2023-02-14T12:55:28.410Z,11.26
2023-02-14T12:57:59.999Z,11.27
2023-02-14T13:00:35.704Z,11.30
2023-02-14T13:03:37.349Z,11.25
2023-02-14T13:06:09.348Z,11.34
2023-02-14T13:08:49.112Z,11.33
2023-02-14T13:11:23.496Z,11.34
2023-02-14T13:14:03.746Z,11.35
2023-02-14T13:16:37.650Z,11.45
2023-02-14T13:19:07.350Z,11.39
2023-02-14T13:21:37.412Z,11.45
2023-02-14T13:24:14.430Z,11.53
2023-02-14T13:26:45.184Z,11.51
2023-02-14T13:29:14.876Z,11.56
2023-02-14T13:31:44.088Z,11.48
2023-02-14T13:34:20.899Z,11.48
2023-02-14T13:36:48.892Z,11.60
2023-02-14T13:39:23.904Z,11.57
2023-02-14T13:41:51.444Z,11.59
2023-02-14T13:44:43.621Z,11.52
2023-02-14T13:47:19.338Z,11.46
2023-02-14T13:49:50.248Z,11.56
2023-02-14T13:52:46.400Z,11.61
2023-02-14T13:55:17.666Z,11.57
2023-02-14T13:57:45.564Z,11.61
2023-02-14T14:00:48.821Z,11.58
2023-02-14T14:03:53.749Z,11.56
2023-02-14T14:06:22.704Z,11.60
2023-02-14T14:08:57.003Z,11.56
2023-02-14T14:11:58.932Z,11.54
2023-02-14T14:14:39.670Z,11.58
2023-02-14T14:17:26.196Z,11.62
2023-02-14T14:19:54.085Z,11.60
2023-02-14T14:22:23.027Z,11.57
2023-02-14T14:24:55.904Z,11.60
2023-02-14T14:27:25.171Z,11.70
2023-02-14T14:29:55.037Z,11.64
2023-02-14T14:32:28.263Z,11.71
2023-02-14T14:34:59.891Z,11.62
2023-02-14T14:37:30.381Z,11.54
2023-02-14T14:39:59.942Z,11.68
2023-02-14T14:42:30.543Z,11.67
2023-02-14T14:45:00.104Z,11.75
2023-02-14T14:47:29.733Z,11.74
2023-02-14T14:50:00.872Z,11.67
2023-02-14T14:52:36.373Z,11.68
2023-02-14T14:55:06.876Z,11.65
2023-02-14T14:57:36.356Z,11.68
2023-02-14T15:00:10.503Z,11.63
2023-02-14T15:02:38.066Z,11.61
2023-02-14T15:05:15.211Z,11.74
2023-02-14T15:07:44.145Z,11.64
2023-02-14T15:10:23.198Z,11.70
2023-02-14T15:13:09.349Z,11.58
2023-02-14T15:15:37.148Z,11.64
2023-02-14T15:18:06.750Z,11.63
2023-02-14T15:20:35.168Z,11.59
2023-02-14T15:23:05.351Z,11.56
2023-02-14T15:25:34.801Z,11.51
2023-02-14T15:28:02.732Z,11.56
2023-02-14T15:30:34.188Z,11.60
2023-02-14T15:33:03.377Z,11.64
2023-02-14T15:35:32.968Z,11.51
2023-02-14T15:38:04.030Z,11.48
2023-02-14T15:40:35.006Z,11.43
2023-02-14T15:43:15.395Z,11.37
2023-02-14T15:45:44.841Z,11.36
2023-02-14T15:48:15.811Z,11.29
2023-02-14T15:50:46.613Z,11.36
2023-02-14T15:53:30.481Z,11.27
2023-02-14T15:56:05.700Z,11.29
2023-02-14T15:58:35.411Z,11.29
2023-02-14T16:01:04.068Z,11.34
2023-02-14T16:03:35.792Z,11.29
2023-02-14T16:06:03.532Z,11.32
2023-02-14T16:08:32.841Z,11.28
2023-02-14T16:11:03.226Z,11.28
2023-02-14T16:13:34.437Z,11.23
2023-02-14T16:16:03.348Z,11.25
2023-02-14T16:18:36.607Z,11.18
2023-02-14T16:21:16.373Z,11.38
2023-02-14T16:23:45.094Z,11.41
2023-02-14T16:26:13.284Z,11.46
2023-02-14T16:28:43.458Z,11.38
2023-02-14T16:31:16.154Z,11.42
2023-02-14T16:33:43.748Z,11.41
2023-02-14T16:36:19.474Z,11.42
2023-02-14T16:38:47.223Z,11.45
2023-02-14T16:41:19.865Z,11.42
2023-02-14T16:43:49.948Z,11.24
2023-02-14T16:46:19.155Z,11.43
2023-02-14T16:48:46.650Z,11.36
2023-02-14T16:51:14.727Z,11.34
2023-02-14T16:53:43.289Z,11.23
2023-02-14T16:56:16.466Z,11.19
2023-02-14T16:58:44.218Z,11.07
2023-02-14T17:01:13.128Z,11.04
2023-02-14T17:03:42.635Z,10.80
2023-02-14T17:06:13.923Z,10.53
2023-02-14T17:08:42.490Z,10.39
2023-02-14T17:11:11.018Z,10.32
2023-02-14T17:13:40.968Z,10.29
2023-02-14T17:16:10.957Z,10.20
2023-02-14T17:18:41.477Z,10.22
2023-02-14T17:21:08.861Z,10.05
2023-02-14T17:23:36.378Z,10.00
2023-02-14T17:26:06.447Z,10.00
2023-02-14T17:28:34.142Z,9.86
2023-02-14T17:31:01.751Z,9.90
2023-02-14T17:33:30.511Z,9.77
2023-02-14T17:36:05.188Z,9.78
2023-02-14T17:38:32.701Z,9.84
2023-02-14T17:41:00.500Z,9.90
2023-02-14T17:43:28.099Z,9.89
2023-02-14T17:45:56.653Z,9.93
2023-02-14T17:48:24.113Z,9.75
2023-02-14T17:50:51.606Z,9.77
2023-02-14T17:53:20.394Z,9.76
2023-02-14T17:55:47.934Z,9.75
2023-02-14T17:58:15.399Z,9.70
2023-02-14T18:00:43.468Z,9.66
2023-02-14T18:03:10.955Z,9.70
2023-02-14T18:05:38.375Z,9.50
2023-02-14T18:08:06.047Z,9.58
2023-02-14T18:10:34.854Z,9.49
2023-02-14T18:13:02.247Z,9.45
2023-02-14T18:15:29.800Z,9.49
2023-02-14T18:17:57.294Z,9.30
2023-02-14T18:20:24.789Z,9.23
2023-02-14T18:22:52.219Z,9.11
2023-02-14T18:25:19.753Z,9.08
2023-02-14T18:27:48.643Z,9.04
2023-02-14T18:30:16.479Z,9.08
2023-02-14T18:32:44.344Z,8.96
2023-02-14T18:35:11.851Z,9.01
2023-02-14T18:37:39.268Z,8.98
2023-02-14T18:40:09.252Z,8.92
2023-02-14T18:42:38.191Z,9.00
2023-02-14T18:45:08.052Z,8.83
2023-02-14T18:47:35.580Z,8.88
2023-02-14T18:50:03.214Z,8.82
2023-02-14T18:52:30.722Z,8.76
2023-02-14T18:54:59.298Z,8.71
2023-02-14T18:57:26.821Z,8.65
2023-02-14T18:59:54.451Z,8.65
2023-02-14T19:02:23.330Z,8.70
2023-02-14T19:04:50.861Z,8.51
2023-02-14T19:07:18.620Z,8.55
2023-02-14T19:09:46.276Z,8.65
2023-02-14T19:12:13.796Z,8.46
2023-02-14T19:14:41.357Z,8.39
2023-02-14T19:17:08.885Z,8.35
2023-02-14T19:19:37.718Z,8.33
2023-02-14T19:22:05.102Z,8.21
2023-02-14T19:24:32.603Z,8.22
2023-02-14T19:27:00.104Z,8.36
2023-02-14T19:29:27.593Z,8.18
2023-02-14T19:31:55.908Z,8.24
2023-02-14T19:34:27.210Z,8.36
2023-02-14T19:36:58.978Z,8.25
2023-02-14T19:39:29.371Z,8.36
2023-02-14T19:41:57.182Z,8.31
2023-02-14T19:44:25.811Z,8.19
2023-02-14T19:46:54.259Z,8.00
2023-02-14T19:49:21.964Z,7.74
2023-02-14T19:51:51.107Z,7.84
2023-02-14T19:54:21.803Z,7.79
2023-02-14T19:56:49.522Z,7.92
2023-02-14T19:59:20.034Z,7.95
2023-02-14T20:01:49.296Z,8.25
2023-02-14T20:04:18.639Z,8.28
2023-02-14T20:06:46.699Z,8.07
2023-02-14T20:09:14.595Z,8.00
2023-02-14T20:11:49.969Z,7.91
2023-02-14T20:14:18.967Z,8.19
2023-02-14T20:16:47.155Z,8.20
2023-02-14T20:19:17.397Z,8.14
2023-02-14T20:21:46.202Z,8.20
2023-02-14T20:24:16.833Z,7.91
2023-02-14T20:26:47.312Z,7.81
2023-02-14T20:29:16.053Z,7.88
2023-02-14T20:31:46.041Z,7.74
2023-02-14T20:34:13.875Z,7.83
2023-02-14T20:36:42.302Z,7.86
2023-02-14T20:39:11.317Z,7.85
2023-02-14T20:41:38.943Z,8.00
2023-02-14T20:44:16.857Z,7.79
2023-02-14T20:46:44.794Z,7.74
2023-02-14T20:49:12.523Z,7.71
2023-02-14T20:51:40.623Z,7.89
2023-02-14T20:54:08.159Z,7.83
2023-02-14T20:56:35.819Z,7.81
2023-02-14T20:59:03.863Z,7.90
2023-02-14T21:01:33.247Z,7.97
2023-02-14T21:04:00.804Z,8.07
2023-02-14T21:06:30.272Z,8.04
2023-02-14T21:08:58.557Z,7.86
2023-02-14T21:11:26.824Z,7.86
2023-02-14T21:13:55.044Z,7.82
2023-02-14T21:16:22.623Z,7.86
2023-02-14T21:18:55.172Z,7.74
2023-02-14T21:21:24.444Z,7.81
2023-02-14T21:23:52.571Z,7.89
2023-02-14T21:26:21.168Z,7.89
2023-02-14T21:28:49.131Z,7.92
2023-02-14T21:31:20.581Z,7.88
2023-02-14T21:33:51.833Z,7.94
2023-02-14T21:36:20.572Z,8.22
2023-02-14T21:38:48.472Z,8.19
2023-02-14T21:41:17.415Z,8.06
2023-02-14T21:43:46.817Z,8.09
2023-02-14T21:46:16.397Z,8.24
2023-02-14T21:49:01.770Z,7.92
2023-02-14T21:51:31.066Z,7.77
2023-02-14T21:53:59.725Z,8.07
2023-02-14T21:56:28.092Z,8.06
2023-02-14T21:58:56.628Z,8.08
2023-02-14T22:01:25.864Z,8.08
2023-02-14T22:03:53.907Z,8.00
2023-02-14T22:06:22.549Z,8.00
2023-02-14T22:08:54.139Z,8.04
2023-02-14T22:11:22.382Z,7.95
2023-02-14T22:13:53.466Z,7.99
2023-02-14T22:16:22.826Z,7.81
2023-02-14T22:18:50.887Z,7.60
2023-02-14T22:21:20.606Z,7.72
2023-02-14T22:26:38.623Z,7.59
2023-02-14T22:29:06.537Z,7.44
2023-02-14T22:31:35.635Z,7.56
2023-02-14T22:34:04.524Z,7.44
2023-02-14T22:36:32.155Z,7.59
2023-02-14T22:38:59.702Z,7.69
2023-02-14T22:41:27.371Z,7.59
2023-02-14T22:43:57.308Z,7.69
2023-02-14T22:46:26.489Z,7.59
2023-02-14T22:48:54.499Z,7.57
2023-02-14T22:51:24.228Z,7.52
2023-02-14T22:53:53.615Z,7.48
2023-02-14T22:56:23.450Z,7.56
2023-02-14T22:58:54.540Z,7.84
2023-02-14T23:01:24.038Z,7.84
2023-02-14T23:03:53.886Z,7.95
2023-02-14T23:06:22.866Z,7.86
2023-02-14T23:08:50.662Z,7.97
2023-02-14T23:11:19.736Z,7.82
2023-02-14T23:14:05.238Z,7.91
2023-02-14T23:16:51.940Z,7.98
2023-02-14T23:19:38.428Z,8.02
2023-02-14T23:22:08.304Z,8.02
2023-02-14T23:24:35.856Z,7.96
2023-02-14T23:27:03.479Z,7.87
2023-02-14T23:29:31.740Z,8.00
2023-02-14T23:32:00.997Z,7.83
2023-02-14T23:34:30.622Z,7.85
2023-02-14T23:36:58.055Z,7.87
2023-02-14T23:39:25.878Z,7.86
2023-02-14T23:41:53.665Z,7.93
2023-02-14T23:44:23.380Z,7.84
2023-02-14T23:46:52.439Z,7.90
2023-02-14T23:49:21.731Z,8.02
2023-02-14T23:51:51.855Z,7.95
2023-02-14T23:54:20.024Z,8.17
2023-02-14T23:56:47.802Z,8.16
2023-02-14T23:59:16.153Z,7.93
